LFSD 200030Z AUTO 17004KT CAVOK 18/13 Q1021 LFSD 200000Z AUTO 17004KT CAVOK 18/13 Q1021 LFSD 192330Z AUTO 16003KT CAVOK 18/14 Q1021 LFSD 192300Z AUTO 17004KT CAVOK 19/14 Q1021 LFSD 192230Z AUTO 17004KT CAVOK 20/14 Q1021 LFSD 192200Z AUTO 16005KT CAVOK 20/14 Q1020 LFSD 192130Z AUTO 14002KT CAVOK 19/15 Q1020 LFSD 192100Z AUTO 15003KT 140V200 CAVOK 19/15 Q1020 LFSD 192030Z AUTO 13006KT CAVOK 21/16 Q1020 LFSD 192000Z AUTO 12004KT CAVOK 22/16 Q1020 LFSD 191930Z AUTO 10003KT CAVOK 23/17 Q1020 LFSD 191900Z AUTO 10003KT CAVOK 25/18 Q1020 LFSD 191830Z AUTO 16003KT CAVOK 27/17 Q1020 LFSD 191800Z AUTO 16004KT CAVOK 28/17 Q1019 LFSD 191730Z AUTO 18005KT CAVOK 28/16 Q1019 LFSD 191700Z AUTO 17007KT 140V200 9999 FEW017 BKN130 29/16 Q1019 LFSD 191630Z AUTO 17007KT 140V200 CAVOK 29/15 Q1020 LFSD 191600Z AUTO 18008KT 150V220 CAVOK 29/15 Q1020 LFSD 191530Z AUTO 18009KT CAVOK 29/15 Q1020 LFSD 191500Z AUTO 17007KT CAVOK 29/17 Q1020 LFSD 191430Z AUTO 21008KT 160V260 CAVOK 29/16 Q1020 LFSD 191400Z AUTO 18008KT 140V220 CAVOK 29/16 Q1021 LFSD 191330Z AUTO 18008KT 140V210 CAVOK 29/17 Q1021 LFSD 191300Z AUTO 19009KT 140V240 CAVOK 28/16 Q1021 LFSD 191230Z AUTO 19010KT 150V220 CAVOK 28/16 Q1021 LFSD 191200Z AUTO 19010KT 160V240 CAVOK 27/16 Q1021 LFSD 191130Z AUTO 19009KT 160V230 CAVOK 26/16 Q1021 LFSD 191100Z AUTO 20007KT 160V230 CAVOK 24/17 Q1021 LFSD 191030Z AUTO 21005KT 180V250 9999 //////CB 21/16 Q1022 LFSD 191000Z AUTO 21007KT 170V250 9999 VCTS ///CB 22/17 Q1022 LFSD 190930Z AUTO 20006KT 9999 FEW035/// OVC100/// ///CB 22/17 Q1021 LFSD 190900Z AUTO 20006KT 150V240 9999 //////CB 22/17 Q1021 LFSD 190830Z AUTO 19009KT CAVOK 22/16 Q1021 LFSD 190800Z AUTO 21010KT 170V230 CAVOK 22/17 Q1021 LFSD 190730Z AUTO 20006KT 160V230 CAVOK 21/17 Q1021 LFSD 190700Z AUTO 18007KT 150V220 CAVOK 20/16 Q1020 LFSD 190630Z AUTO 19006KT 140V230 CAVOK 19/17 Q1020 LFSD 190600Z AUTO VRB03KT 9999 //////TCU 18/16 Q1020 LFSD 190530Z AUTO 16010KT 9999 -RA ///CB 18/16 Q1020 LFSD 190500Z AUTO 19004KT 150V220 9999 VCTS ///CB 18/16 Q1020 LFSD 190430Z AUTO 18005KT 150V210 9999 //////CB 17/15 Q1019 LFSD 190400Z AUTO 12004KT 070V210 9999 //////TCU 16/14 Q1019 LFSD 190330Z AUTO VRB01KT 9999 -RA //////TCU 15/14 Q1019 LFSD 190300Z AUTO 00000KT 9999 //////TCU 15/13 Q1019 LFSD 190230Z AUTO 27001KT 9999 //////TCU 15/13 Q1019 LFSD 190200Z AUTO 25003KT CAVOK 15/13 Q1019 LFSD 190130Z AUTO 15004KT CAVOK 15/12 Q1019 LFSD 190100Z AUTO 00000KT CAVOK 16/13 Q1018 LFSD 190030Z AUTO VRB01KT CAVOK 16/13 Q1018 LFSD 190000Z AUTO 33003KT CAVOK 18/13 Q1018 LFSD 182330Z AUTO 29003KT CAVOK 17/13 Q1018 LFSD 182300Z AUTO 33005KT CAVOK 19/13 Q1018 LFSD 182230Z AUTO 31003KT CAVOK 19/13 Q1018 LFSD 182200Z AUTO 31002KT CAVOK 19/13 Q1018 LFSD 182130Z AUTO 30003KT CAVOK 20/14 Q1018 LFSD 182100Z AUTO 33004KT CAVOK 21/14 Q1018 LFSD 182030Z AUTO 30003KT CAVOK 20/14 Q1018 LFSD 182000Z AUTO 31002KT CAVOK 22/14 Q1018 LFSD 181930Z AUTO 35003KT CAVOK 23/13 Q1018 LFSD 181900Z AUTO 02003KT CAVOK 25/14 Q1018 LFSD 181830Z AUTO 03004KT CAVOK 26/13 Q1018 LFSD 181800Z AUTO 03006KT CAVOK 27/12 Q1018 LFSD 181730Z AUTO 04006KT CAVOK 28/11 Q1018 LFSD 181700Z AUTO 04007KT CAVOK 29/11 Q1018 LFSD 181630Z AUTO 03007KT 360V070 CAVOK 29/11 Q1018 LFSD 181600Z AUTO 04007KT CAVOK 29/12 Q1018 LFSD 181530Z AUTO 04008KT CAVOK 29/12 Q1018 LFSD 181500Z AUTO 04008KT 010V070 CAVOK 29/11 Q1018 LFSD 181430Z AUTO 05007KT 320V080 CAVOK 30/11 Q1019 LFSD 181400Z AUTO 05007KT 010V080 CAVOK 30/12 Q1019 LFSD 181330Z AUTO 04007KT 330V090 CAVOK 30/12 Q1019 LFSD 181300Z AUTO 04007KT 320V100 CAVOK 30/12 Q1019

METAR Messwerte "DIJON/LONGVIC(FA" LFSD

Zurück zur Übersicht

Ortsname
Ländercode / m ü. NN
Zeit Temperatur Taupunkt Rel.
Luftfeuchte
Luftdruck:
Altimeter
NN
Station
Wind in Beaufort
(Knoten)
Sichtweite
(Meter)
Wolken
(Meter über Grund)
Wettererscheinung
DIJON/LONGVIC(FA
FR 218
Fr 20.05. 02:30181373 %1021
1021
995
S 2 (4)>= 10000Nicht signifikant 
DIJON/LONGVIC(FA
FR 218
Fr 20.05. 02:00181373 %1021
1021
995
S 2 (4)>= 10000Nicht signifikant 
DIJON/LONGVIC(FA
FR 218
Fr 20.05. 01:30181477 %1021
1021
995
SSO 2 (3)>= 10000Nicht signifikant 
DIJON/LONGVIC(FA
FR 218
Fr 20.05. 01:00191473 %1021
1021
995
S 2 (4)>= 10000Nicht signifikant 
DIJON/LONGVIC(FA
FR 218
Fr 20.05. 00:30201468 %1021
1021
995
S 2 (4)>= 10000Nicht signifikant 
DIJON/LONGVIC(FA
FR 218
Fr 20.05. 00:00201468 %1020
1020
994
SSO 2 (5)>= 10000Nicht signifikant 
DIJON/LONGVIC(FA
FR 218
Do 19.05. 23:30191578 %1020
1020
994
SO 1 (2)>= 10000Nicht signifikant 
DIJON/LONGVIC(FA
FR 218
Do 19.05. 23:00191578 %1020
1020
994
SSO 2 (3)
SO - SSW
>= 10000Nicht signifikant 
DIJON/LONGVIC(FA
FR 218
Do 19.05. 22:30211673 %1020
1020
994
SO 2 (6)>= 10000Nicht signifikant 
DIJON/LONGVIC(FA
FR 218
Do 19.05. 22:00221669 %1020
1019
994
OSO 2 (4)>= 10000Nicht signifikant 
DIJON/LONGVIC(FA
FR 218
Do 19.05. 21:30231769 %1020
1019
994
O 2 (3)>= 10000Nicht signifikant 
DIJON/LONGVIC(FA
FR 218
Do 19.05. 21:00251865 %1020
1019
994
O 2 (3)>= 10000Nicht signifikant 
DIJON/LONGVIC(FA
FR 218
Do 19.05. 20:30271754 %1020
1019
994
SSO 2 (3)>= 10000Nicht signifikant 
DIJON/LONGVIC(FA
FR 218
Do 19.05. 20:00281751 %1019
1018
993
SSO 2 (4)>= 10000Nicht signifikant 
DIJON/LONGVIC(FA
FR 218
Do 19.05. 19:30281648 %1019
1018
993
S 2 (5)>= 10000Nicht signifikant 
DIJON/LONGVIC(FA
FR 218
Do 19.05. 19:00291645 %1019
1018
993
S 3 (7)
SO - SSW
>= 10000Stark bewölkt (4000)
Leicht bewölkt (520)
 
DIJON/LONGVIC(FA
FR 218
Do 19.05. 18:30291543 %1020
1019
994
S 3 (7)
SO - SSW
>= 10000Nicht signifikant 
DIJON/LONGVIC(FA
FR 218
Do 19.05. 18:00291543 %1020
1019
994
S 3 (8)
SSO - SW
>= 10000Nicht signifikant 
DIJON/LONGVIC(FA
FR 218
Do 19.05. 17:30291543 %1020
1019
994
S 3 (9)>= 10000Nicht signifikant 
DIJON/LONGVIC(FA
FR 218
Do 19.05. 17:00291748 %1020
1019
994
S 3 (7)>= 10000Nicht signifikant 
DIJON/LONGVIC(FA
FR 218
Do 19.05. 16:30291645 %1020
1019
994
SSW 3 (8)
SSO - W
>= 10000Nicht signifikant 
DIJON/LONGVIC(FA
FR 218
Do 19.05. 16:00291645 %1021
1020
995
S 3 (8)
SO - SW
>= 10000Nicht signifikant 
DIJON/LONGVIC(FA
FR 218
Do 19.05. 15:30291748 %1021
1020
995
S 3 (8)
SO - SSW
>= 10000Nicht signifikant 
DIJON/LONGVIC(FA
FR 218
Do 19.05. 15:00281648 %1021
1020
995
S 3 (9)
SO - WSW
>= 10000Nicht signifikant 
DIJON/LONGVIC(FA
FR 218
Do 19.05. 14:30281648 %1021
1020
995
S 3 (10)
SSO - SW
>= 10000Nicht signifikant 
DIJON/LONGVIC(FA
FR 218
Do 19.05. 14:00271651 %1021
1020
995
S 3 (10)
SSO - WSW
>= 10000Nicht signifikant 
DIJON/LONGVIC(FA
FR 218
Do 19.05. 13:30261654 %1021
1020
995
S 3 (9)
SSO - SW
>= 10000Nicht signifikant 
DIJON/LONGVIC(FA
FR 218
Do 19.05. 13:00241765 %1021
1020
995
SSW 3 (7)
SSO - SW
>= 10000Nicht signifikant 
DIJON/LONGVIC(FA
FR 218
Do 19.05. 12:30211673 %1022
1022
996
SSW 2 (5)
S - WSW
>= 10000  
DIJON/LONGVIC(FA
FR 218
Do 19.05. 12:00221773 %1022
1021
996
SSW 3 (7)
S - WSW
>= 10000  
DIJON/LONGVIC(FA
FR 218
Do 19.05. 11:30221773 %1021
1020
995
SSW 2 (6)>= 10000Bedeckt (3000)
Leicht bewölkt (1100)
 
DIJON/LONGVIC(FA
FR 218
Do 19.05. 11:00221773 %1021
1020
995
SSW 2 (6)
SSO - WSW
>= 10000  
DIJON/LONGVIC(FA
FR 218
Do 19.05. 10:30221669 %1021
1020
995
S 3 (9)>= 10000Nicht signifikant 
DIJON/LONGVIC(FA
FR 218
Do 19.05. 10:00221773 %1021
1020
995
SSW 3 (10)
S - SW
>= 10000Nicht signifikant 
DIJON/LONGVIC(FA
FR 218
Do 19.05. 09:30211778 %1021
1021
995
SSW 2 (6)
SSO - SW
>= 10000Nicht signifikant 
DIJON/LONGVIC(FA
FR 218
Do 19.05. 09:00201678 %1020
1020
994
S 3 (7)
SSO - SW
>= 10000Nicht signifikant 
DIJON/LONGVIC(FA
FR 218
Do 19.05. 08:30191788 %1020
1020
994
S 2 (6)
SO - SW
>= 10000Nicht signifikant 
DIJON/LONGVIC(FA
FR 218
Do 19.05. 08:00181688 %1020
1020
994
Uml 2 (3)>= 10000  
DIJON/LONGVIC(FA
FR 218
Do 19.05. 07:30181688 %1020
1020
994
SSO 3 (10)>= 10000 Regen (schwach)
DIJON/LONGVIC(FA
FR 218
Do 19.05. 07:00181688 %1020
1020
994
S 2 (4)
SSO - SW
>= 10000  
DIJON/LONGVIC(FA
FR 218
Do 19.05. 06:30171588 %1019
1019
993
S 2 (5)
SSO - SSW
>= 10000  
DIJON/LONGVIC(FA
FR 218
Do 19.05. 06:00161488 %1019
1019
993
OSO 2 (4)
ONO - SSW
>= 10000  
DIJON/LONGVIC(FA
FR 218
Do 19.05. 05:30151494 %1019
1019
993
Uml 1 (1)>= 10000 Regen (schwach)
DIJON/LONGVIC(FA
FR 218
Do 19.05. 05:00151388 %1019
1019
993
Windstill>= 10000  
DIJON/LONGVIC(FA
FR 218
Do 19.05. 04:30151388 %1019
1019
993
W 1 (1)>= 10000  
DIJON/LONGVIC(FA
FR 218
Do 19.05. 04:00151388 %1019
1019
993
WSW 2 (3)>= 10000Nicht signifikant 
DIJON/LONGVIC(FA
FR 218
Do 19.05. 03:30151282 %1019
1019
993
SSO 2 (4)>= 10000Nicht signifikant 
DIJON/LONGVIC(FA
FR 218
Do 19.05. 03:00161382 %1018
1018
992
Windstill>= 10000Nicht signifikant 
DIJON/LONGVIC(FA
FR 218
Do 19.05. 02:30161382 %1018
1018
992
Uml 1 (1)>= 10000Nicht signifikant 
DIJON/LONGVIC(FA
FR 218
Do 19.05. 02:00181373 %1018
1018
992
NNW 2 (3)>= 10000Nicht signifikant 
DIJON/LONGVIC(FA
FR 218
Do 19.05. 01:30171377 %1018
1018
992
WNW 2 (3)>= 10000Nicht signifikant 
DIJON/LONGVIC(FA
FR 218
Do 19.05. 01:00191368 %1018
1018
992
NNW 2 (5)>= 10000Nicht signifikant 
DIJON/LONGVIC(FA
FR 218
Do 19.05. 00:30191368 %1018
1018
992
NW 2 (3)>= 10000Nicht signifikant 
DIJON/LONGVIC(FA
FR 218
Do 19.05. 00:00191368 %1018
1018
992
NW 1 (2)>= 10000Nicht signifikant 
DIJON/LONGVIC(FA
FR 218
Mi 18.05. 23:30201468 %1018
1018
992
WNW 2 (3)>= 10000Nicht signifikant 
DIJON/LONGVIC(FA
FR 218
Mi 18.05. 23:00211464 %1018
1017
992
NNW 2 (4)>= 10000Nicht signifikant 
DIJON/LONGVIC(FA
FR 218
Mi 18.05. 22:30201468 %1018
1018
992
WNW 2 (3)>= 10000Nicht signifikant 
DIJON/LONGVIC(FA
FR 218
Mi 18.05. 22:00221460 %1018
1017
992
NW 1 (2)>= 10000Nicht signifikant 
DIJON/LONGVIC(FA
FR 218
Mi 18.05. 21:30231353 %1018
1017
992
N 2 (3)>= 10000Nicht signifikant 
DIJON/LONGVIC(FA
FR 218
Mi 18.05. 21:00251450 %1018
1017
992
NNO 2 (3)>= 10000Nicht signifikant 
DIJON/LONGVIC(FA
FR 218
Mi 18.05. 20:30261345 %1018
1017
992
NNO 2 (4)>= 10000Nicht signifikant 
DIJON/LONGVIC(FA
FR 218
Mi 18.05. 20:00271239 %1018
1017
992
NNO 2 (6)>= 10000Nicht signifikant 
DIJON/LONGVIC(FA
FR 218
Mi 18.05. 19:30281135 %1018
1017
992
NO 2 (6)>= 10000Nicht signifikant 
DIJON/LONGVIC(FA
FR 218
Mi 18.05. 19:00291133 %1018
1017
992
NO 3 (7)>= 10000Nicht signifikant 
DIJON/LONGVIC(FA
FR 218
Mi 18.05. 18:30291133 %1018
1017
992
NNO 3 (7)
N - ONO
>= 10000Nicht signifikant 
DIJON/LONGVIC(FA
FR 218
Mi 18.05. 18:00291235 %1018
1017
992
NO 3 (7)>= 10000Nicht signifikant 
DIJON/LONGVIC(FA
FR 218
Mi 18.05. 17:30291235 %1018
1017
992
NO 3 (8)>= 10000Nicht signifikant 
DIJON/LONGVIC(FA
FR 218
Mi 18.05. 17:00291133 %1018
1017
992
NO 3 (8)
N - ONO
>= 10000Nicht signifikant 
DIJON/LONGVIC(FA
FR 218
Mi 18.05. 16:30301131 %1019
1018
993
NO 3 (7)
NW - O
>= 10000Nicht signifikant 
DIJON/LONGVIC(FA
FR 218
Mi 18.05. 16:00301233 %1019
1018
993
NO 3 (7)
N - O
>= 10000Nicht signifikant 
DIJON/LONGVIC(FA
FR 218
Mi 18.05. 15:30301233 %1019
1018
993
NO 3 (7)
NNW - O
>= 10000Nicht signifikant 
DIJON/LONGVIC(FA
FR 218
Mi 18.05. 15:00301233 %1019
1018
993
NO 3 (7)
NW - O
>= 10000Nicht signifikant 

Altimeter: Einstellung am Altimeter (Höhenmesser), die Höhe 0 muss auf diesen Luftdruckwert zeigen, damit das Gerät die Stationshöhe richtig anzeigt.

NN: Luftdruck reduziert auf "Normal Null", auf Meereshöhe, dieser von der Temperatur abhängige Wert wird bisweilen unkorrekt einfach als "Luftdruck" bezeichnet. Eigentlich nur eine fiktive Größe, die es erlaubt, Stationen auf unterschiedlichen Höhen miteinander zu vergleichen.

Station: Realer Luftdruck an der Station.